createdAt,value
2022-09-11T00:00:21.581Z,0.70
2022-09-11T00:03:25.241Z,0.40
2022-09-11T00:06:30.381Z,0.55
2022-09-11T00:09:33.792Z,0.50
2022-09-11T00:12:40.664Z,0.60
2022-09-11T00:15:46.234Z,0.60
2022-09-11T00:18:50.586Z,0.60
2022-09-11T00:21:57.264Z,0.68
2022-09-11T00:25:00.359Z,0.65
2022-09-11T00:28:03.752Z,0.50
2022-09-11T00:31:18.234Z,0.50
2022-09-11T00:34:21.473Z,0.50
2022-09-11T00:37:24.689Z,0.60
2022-09-11T00:40:27.882Z,0.60
2022-09-11T00:43:50.024Z,0.70
2022-09-11T00:46:59.887Z,0.50
2022-09-11T00:50:14.927Z,0.50
2022-09-11T00:53:21.303Z,0.57
2022-09-11T00:56:29.599Z,0.40
2022-09-11T00:59:34.398Z,0.60
2022-09-11T01:02:41.933Z,0.50
2022-09-11T01:05:45.729Z,0.40
2022-09-11T01:08:49.017Z,0.40
2022-09-11T01:12:24.172Z,0.50
2022-09-11T01:15:47.363Z,0.65
2022-09-11T01:19:01.031Z,0.50
2022-09-11T01:22:19.431Z,0.50
2022-09-11T01:25:52.035Z,0.50
2022-09-11T01:29:08.375Z,0.50
2022-09-11T01:32:24.367Z,0.47
2022-09-11T01:36:26.812Z,0.40
2022-09-11T01:39:37.590Z,0.52
2022-09-11T01:42:43.757Z,0.40
2022-09-11T01:45:49.692Z,0.50
2022-09-11T01:49:38.224Z,0.50
2022-09-11T01:52:53.224Z,0.90
2022-09-11T01:56:02.657Z,0.80
2022-09-11T01:59:14.721Z,0.70
2022-09-11T02:02:36.591Z,0.70
2022-09-11T02:05:53.092Z,0.98
2022-09-11T02:09:03.648Z,0.93
2022-09-11T02:12:11.363Z,0.90
2022-09-11T02:15:15.923Z,0.70
2022-09-11T02:18:29.356Z,0.90
2022-09-11T02:21:34.275Z,0.90
2022-09-11T02:24:37.668Z,0.80
2022-09-11T02:27:41.123Z,0.90
2022-09-11T02:30:45.320Z,1.25
2022-09-11T02:33:48.900Z,0.98
2022-09-11T02:37:16.244Z,0.93
2022-09-11T02:40:47.478Z,0.97
2022-09-11T02:44:21.286Z,1.20
2022-09-11T02:47:49.233Z,1.20
2022-09-11T02:51:17.359Z,1.10
2022-09-11T02:54:35.756Z,0.90
2022-09-11T02:57:56.314Z,0.93
2022-09-11T03:01:03.796Z,0.95
2022-09-11T03:04:08.248Z,1.15
2022-09-11T03:07:11.685Z,0.90
2022-09-11T03:10:14.932Z,1.02
2022-09-11T03:13:18.059Z,1.07
2022-09-11T03:16:21.825Z,0.98
2022-09-11T03:19:26.753Z,1.25
2022-09-11T03:22:31.211Z,1.20
2022-09-11T03:25:35.078Z,1.10
2022-09-11T03:28:40.038Z,1.37
2022-09-11T03:31:43.517Z,1.05
2022-09-11T03:34:48.924Z,1.08
2022-09-11T03:37:52.096Z,0.90
2022-09-11T03:40:55.426Z,1.00
2022-09-11T03:43:59.748Z,0.97
2022-09-11T03:47:02.931Z,1.05
2022-09-11T03:50:07.111Z,1.27
2022-09-11T03:53:11.622Z,0.90
2022-09-11T03:56:17.482Z,0.90
2022-09-11T03:59:26.326Z,0.80
2022-09-11T04:02:29.763Z,1.10
2022-09-11T04:05:32.909Z,1.42
2022-09-11T04:08:39.301Z,0.90
2022-09-11T04:11:43.972Z,1.00
2022-09-11T04:14:54.602Z,1.20
2022-09-11T04:18:00.996Z,1.42
2022-09-11T04:21:09.215Z,1.35
2022-09-11T04:24:12.666Z,1.40
2022-09-11T04:27:15.959Z,1.55
2022-09-11T04:30:19.867Z,1.67
2022-09-11T04:33:24.781Z,1.77
2022-09-11T04:36:30.132Z,1.70
2022-09-11T04:39:34.281Z,1.90
2022-09-11T04:42:38.529Z,2.03
2022-09-11T04:45:41.698Z,2.00
2022-09-11T04:48:48.443Z,2.10
2022-09-11T04:51:55.543Z,2.50
2022-09-11T04:55:01.814Z,2.70
2022-09-11T04:58:05.661Z,2.20
2022-09-11T05:01:10.918Z,2.43
2022-09-11T05:04:17.684Z,2.53
2022-09-11T05:07:21.720Z,2.28
2022-09-11T05:10:27.584Z,2.20
2022-09-11T05:13:35.669Z,1.95
2022-09-11T05:16:40.058Z,2.10
2022-09-11T05:19:45.579Z,2.05
2022-09-11T05:22:51.020Z,2.13
2022-09-11T05:25:58.980Z,1.75
2022-09-11T05:29:13.750Z,1.50
2022-09-11T05:32:38.558Z,1.80
2022-09-11T05:35:41.825Z,1.40
2022-09-11T05:38:45.396Z,1.10
2022-09-11T05:41:51.864Z,1.10
2022-09-11T05:44:55.387Z,1.17
2022-09-11T05:48:00.982Z,0.97
2022-09-11T05:51:10.510Z,1.08
2022-09-11T05:54:14.104Z,1.23
2022-09-11T05:57:17.391Z,0.80
2022-09-11T06:00:21.148Z,1.20
2022-09-11T06:03:33.823Z,1.00
2022-09-11T06:06:36.929Z,0.75
2022-09-11T06:09:40.171Z,0.50
2022-09-11T06:12:43.609Z,0.47
2022-09-11T06:15:49.063Z,0.60
2022-09-11T06:18:54.261Z,0.40
2022-09-11T06:21:57.828Z,0.60
2022-09-11T06:25:06.615Z,0.57
2022-09-11T06:28:09.714Z,0.60
2022-09-11T06:31:19.196Z,0.40
2022-09-11T06:34:23.189Z,0.43
2022-09-11T06:37:27.081Z,0.30
2022-09-11T06:40:30.310Z,0.40
2022-09-11T06:43:33.704Z,0.40
2022-09-11T06:46:38.615Z,0.52
2022-09-11T06:49:42.995Z,0.47
2022-09-11T06:53:05.856Z,0.55
2022-09-11T06:56:13.888Z,0.60
2022-09-11T06:59:19.056Z,0.68
2022-09-11T07:02:22.282Z,0.50
2022-09-11T07:05:25.914Z,0.70
2022-09-11T07:08:30.455Z,0.93
2022-09-11T07:11:35.192Z,0.70
2022-09-11T07:14:39.771Z,0.63
2022-09-11T07:17:49.926Z,0.50
2022-09-11T07:20:53.186Z,0.70
2022-09-11T07:23:58.769Z,0.70
2022-09-11T07:27:04.606Z,0.70
2022-09-11T07:30:12.597Z,0.60
2022-09-11T07:33:18.687Z,0.70
2022-09-11T07:36:26.260Z,0.57
2022-09-11T07:39:30.928Z,0.60
2022-09-11T07:42:41.845Z,0.90
2022-09-11T07:45:45.066Z,0.85
2022-09-11T07:48:48.703Z,0.60
2022-09-11T07:51:52.697Z,0.53
2022-09-11T07:55:03.656Z,0.80
2022-09-11T07:58:10.201Z,0.70
2022-09-11T08:01:16.697Z,0.40
2022-09-11T08:04:20.088Z,0.88
2022-09-11T08:07:23.420Z,0.50
2022-09-11T08:10:28.079Z,0.60
2022-09-11T08:13:33.386Z,0.57
2022-09-11T08:16:37.449Z,0.30
2022-09-11T08:19:40.775Z,0.50
2022-09-11T08:22:44.104Z,0.30
2022-09-11T08:25:47.404Z,0.40
2022-09-11T08:28:53.613Z,0.40
2022-09-11T08:32:01.604Z,0.30
2022-09-11T08:35:07.085Z,0.30
2022-09-11T08:38:10.278Z,0.30
2022-09-11T08:41:19.831Z,0.30
2022-09-11T08:44:24.619Z,0.68
2022-09-11T08:47:35.626Z,0.40
2022-09-11T08:50:43.462Z,0.30
2022-09-11T08:53:49.412Z,0.40
2022-09-11T08:56:53.541Z,0.30
2022-09-11T09:00:11.264Z,0.30
2022-09-11T09:03:41.796Z,0.52
2022-09-11T09:07:17.550Z,0.47
2022-09-11T09:10:38.886Z,0.53
2022-09-11T09:14:25.399Z,0.30
2022-09-11T09:17:49.232Z,0.50
2022-09-11T09:21:02.748Z,1.40
2022-09-11T09:24:19.290Z,0.85
2022-09-11T09:27:29.893Z,0.60
2022-09-11T09:30:46.734Z,0.40
2022-09-11T09:34:06.715Z,0.30
2022-09-11T09:37:21.160Z,0.50
2022-09-11T09:40:26.070Z,0.30
2022-09-11T09:43:59.518Z,0.40
2022-09-11T09:47:02.909Z,0.30
2022-09-11T09:50:14.891Z,0.50
2022-09-11T09:53:36.170Z,0.30
2022-09-11T09:56:43.137Z,0.30
2022-09-11T10:00:22.476Z,0.30
2022-09-11T10:03:27.015Z,0.30
2022-09-11T10:06:30.240Z,0.30
2022-09-11T10:09:34.313Z,0.30
2022-09-11T10:12:37.561Z,0.30
2022-09-11T10:15:42.197Z,0.30
2022-09-11T10:18:47.148Z,0.63
2022-09-11T10:21:51.511Z,0.30
2022-09-11T10:25:08.720Z,0.30
2022-09-11T10:28:19.421Z,0.30
2022-09-11T10:31:23.269Z,0.60
2022-09-11T10:34:28.057Z,0.38
2022-09-11T10:37:32.141Z,0.30
2022-09-11T10:40:35.415Z,0.30
2022-09-11T10:44:03.113Z,0.30
2022-09-11T10:47:22.242Z,0.53
2022-09-11T10:50:26.935Z,0.20
2022-09-11T10:53:37.772Z,0.40
2022-09-11T10:57:05.455Z,0.40
2022-09-11T11:00:25.073Z,0.30
2022-09-11T11:03:29.711Z,0.40
2022-09-11T11:07:04.988Z,0.30
2022-09-11T11:10:14.017Z,0.30
2022-09-11T11:13:45.736Z,0.20
2022-09-11T11:17:14.930Z,0.30
2022-09-11T11:20:44.678Z,0.20
2022-09-11T11:24:06.581Z,0.28
2022-09-11T11:27:31.263Z,0.20
2022-09-11T11:30:55.202Z,0.30
2022-09-11T11:34:08.165Z,0.20
2022-09-11T11:37:23.170Z,0.37
2022-09-11T11:40:43.631Z,0.30
2022-09-11T11:43:48.854Z,0.30
2022-09-11T11:46:56.237Z,0.43
2022-09-11T11:50:12.917Z,0.30
2022-09-11T11:53:31.343Z,0.30
2022-09-11T11:56:40.754Z,0.30
2022-09-11T12:00:04.316Z,0.20
2022-09-11T12:03:23.793Z,0.30
2022-09-11T12:06:27.162Z,0.40
2022-09-11T12:09:33.811Z,0.40
2022-09-11T12:12:50.143Z,0.50
2022-09-11T12:16:10.695Z,0.30
2022-09-11T12:19:20.838Z,0.30
2022-09-11T12:22:39.036Z,0.30
2022-09-11T12:26:03.983Z,0.30
2022-09-11T12:29:14.040Z,0.30
2022-09-11T12:32:17.056Z,0.30
2022-09-11T12:35:28.868Z,0.30
2022-09-11T12:38:41.802Z,0.40
2022-09-11T12:41:45.906Z,0.50
2022-09-11T12:44:48.992Z,0.47
2022-09-11T12:47:52.197Z,0.30
2022-09-11T12:50:56.753Z,0.40
2022-09-11T12:54:03.778Z,0.30
2022-09-11T12:57:22.046Z,0.40
2022-09-11T13:00:42.858Z,0.30
2022-09-11T13:04:09.771Z,0.32
2022-09-11T13:07:45.280Z,0.40
2022-09-11T13:10:48.832Z,0.22
2022-09-11T13:13:57.313Z,0.37
2022-09-11T13:17:04.933Z,0.30
2022-09-11T13:20:09.299Z,0.40
2022-09-11T13:23:20.924Z,0.32
2022-09-11T13:26:32.028Z,0.43
2022-09-11T13:29:37.432Z,0.30
2022-09-11T13:32:42.026Z,0.30
2022-09-11T13:35:46.372Z,0.30
2022-09-11T13:38:57.681Z,0.38
2022-09-11T13:42:03.061Z,0.30
2022-09-11T13:45:06.960Z,0.30
2022-09-11T13:48:28.055Z,0.50
2022-09-11T13:51:31.901Z,0.32
2022-09-11T13:54:38.479Z,0.40
2022-09-11T13:57:59.279Z,0.30
2022-09-11T14:01:28.653Z,0.30
2022-09-11T14:04:38.552Z,0.40
2022-09-11T14:07:59.668Z,0.35
2022-09-11T14:11:21.841Z,0.20
2022-09-11T14:14:29.089Z,0.30
2022-09-11T14:17:32.270Z,0.30
2022-09-11T14:20:40.003Z,0.73
2022-09-11T14:23:50.190Z,0.47
2022-09-11T14:26:54.030Z,0.30
2022-09-11T14:29:57.548Z,0.30
2022-09-11T14:33:15.413Z,0.40
2022-09-11T14:36:22.952Z,0.50
2022-09-11T14:39:39.513Z,0.35
2022-09-11T14:42:43.752Z,0.35
2022-09-11T14:45:46.904Z,0.40
2022-09-11T14:48:50.096Z,0.40
2022-09-11T14:51:58.038Z,0.50
2022-09-11T14:55:01.125Z,0.40
2022-09-11T14:58:04.237Z,0.30
2022-09-11T15:01:08.916Z,0.20
2022-09-11T15:04:23.152Z,0.20
2022-09-11T15:07:27.537Z,0.30
2022-09-11T15:10:32.455Z,0.30
2022-09-11T15:13:35.859Z,0.30
2022-09-11T15:16:39.135Z,0.30
2022-09-11T15:19:42.937Z,0.50
2022-09-11T15:22:46.104Z,0.52
2022-09-11T15:25:49.385Z,1.52
2022-09-11T15:28:53.357Z,0.45
2022-09-11T15:31:56.633Z,0.30
2022-09-11T15:34:59.830Z,0.40
2022-09-11T15:38:04.520Z,0.30
2022-09-11T15:41:10.405Z,0.30
2022-09-11T15:44:28.677Z,0.55
2022-09-11T15:47:32.308Z,0.40
2022-09-11T15:50:35.816Z,0.47
2022-09-11T15:53:39.127Z,0.30
2022-09-11T15:56:43.249Z,0.30
2022-09-11T15:59:46.434Z,0.40
2022-09-11T16:02:52.806Z,0.50
2022-09-11T16:05:57.198Z,0.40
2022-09-11T16:09:08.475Z,0.63
2022-09-11T16:12:12.298Z,0.22
2022-09-11T16:15:15.492Z,0.35
2022-09-11T16:18:19.539Z,1.50
2022-09-11T16:21:23.323Z,0.70
2022-09-11T16:24:28.381Z,0.50
2022-09-11T16:27:31.516Z,0.40
2022-09-11T16:30:43.745Z,0.30
2022-09-11T16:33:48.672Z,0.40
2022-09-11T16:36:52.861Z,0.70
2022-09-11T16:39:56.370Z,0.30
2022-09-11T16:42:59.496Z,0.30
2022-09-11T16:46:03.259Z,0.47
2022-09-11T16:49:06.584Z,0.40
2022-09-11T16:52:11.181Z,0.40
2022-09-11T16:55:14.325Z,0.47
2022-09-11T16:58:17.509Z,0.40
2022-09-11T17:01:26.122Z,0.60
2022-09-11T17:04:29.277Z,0.60
2022-09-11T17:07:32.470Z,0.37
2022-09-11T17:10:35.651Z,1.00
2022-09-11T17:13:39.164Z,0.32
2022-09-11T17:16:42.304Z,0.80
2022-09-11T17:19:45.470Z,0.30
2022-09-11T17:22:48.610Z,0.40
2022-09-11T17:25:52.108Z,0.82
2022-09-11T17:28:55.566Z,0.40
2022-09-11T17:32:23.878Z,0.55
2022-09-11T17:35:22.573Z,0.30
2022-09-11T17:38:26.680Z,0.30
2022-09-11T17:41:30.020Z,0.55
2022-09-11T17:44:33.784Z,0.30
2022-09-11T17:47:36.985Z,0.40
2022-09-11T17:50:40.044Z,0.30
2022-09-11T17:53:46.112Z,0.70
2022-09-11T17:56:49.466Z,0.57
2022-09-11T17:59:53.043Z,0.40
2022-09-11T18:02:58.766Z,0.30
2022-09-11T18:06:03.696Z,0.30
2022-09-11T18:09:13.893Z,3.23
2022-09-11T18:12:17.043Z,0.50
2022-09-11T18:15:20.427Z,0.40
2022-09-11T18:18:24.517Z,1.30
2022-09-11T18:21:27.672Z,1.13
2022-09-11T18:24:31.413Z,0.30
2022-09-11T18:27:35.081Z,0.30
2022-09-11T18:30:41.187Z,0.40
2022-09-11T18:33:44.517Z,0.40
2022-09-11T18:36:48.124Z,0.40
2022-09-11T18:39:51.398Z,0.30
2022-09-11T18:42:54.705Z,0.60
2022-09-11T18:46:02.771Z,0.50
2022-09-11T18:49:06.762Z,0.70
2022-09-11T18:52:10.799Z,0.40
2022-09-11T18:55:13.971Z,0.50
2022-09-11T18:58:17.091Z,0.60
2022-09-11T19:01:24.049Z,0.40
2022-09-11T19:04:28.215Z,0.32
2022-09-11T19:07:32.332Z,0.38
2022-09-11T19:10:36.735Z,0.40
2022-09-11T19:13:41.197Z,0.50
2022-09-11T19:16:44.889Z,0.80
2022-09-11T19:19:48.026Z,0.90
2022-09-11T19:22:51.299Z,0.55
2022-09-11T19:25:54.501Z,0.40
2022-09-11T19:29:00.240Z,0.57
2022-09-11T19:32:03.744Z,0.50
2022-09-11T19:35:07.144Z,0.93
2022-09-11T19:38:10.276Z,0.50
2022-09-11T19:41:15.303Z,0.30
2022-09-11T19:44:20.024Z,0.40
2022-09-11T19:47:24.892Z,0.25
2022-09-11T19:50:35.285Z,0.40
2022-09-11T19:53:42.137Z,0.40
2022-09-11T19:56:45.375Z,0.50
2022-09-11T19:59:48.531Z,0.52
2022-09-11T20:02:51.692Z,0.43
2022-09-11T20:05:54.912Z,0.40
2022-09-11T20:09:13.766Z,1.20
2022-09-11T20:12:22.164Z,3.63
2022-09-11T20:15:25.953Z,0.70
2022-09-11T20:18:29.191Z,0.30
2022-09-11T20:21:33.913Z,0.40
2022-09-11T20:24:36.990Z,0.60
2022-09-11T20:27:40.126Z,0.40
2022-09-11T20:30:43.771Z,0.60
2022-09-11T20:33:49.339Z,0.25
2022-09-11T20:36:52.412Z,0.45
2022-09-11T20:39:55.532Z,0.40
2022-09-11T20:43:00.449Z,0.50
2022-09-11T20:46:04.431Z,0.80
2022-09-11T20:49:07.640Z,0.40
2022-09-11T20:52:12.481Z,0.35
2022-09-11T20:55:15.685Z,0.40
2022-09-11T20:58:18.795Z,0.37
2022-09-11T21:01:23.758Z,0.40
2022-09-11T21:04:27.147Z,0.55
2022-09-11T21:07:31.810Z,0.50
2022-09-11T21:10:36.477Z,0.70
2022-09-11T21:13:41.165Z,0.63
2022-09-11T21:16:44.510Z,0.77
2022-09-11T21:19:47.665Z,0.80
2022-09-11T21:22:51.540Z,1.33
2022-09-11T21:25:54.837Z,0.88
2022-09-11T21:28:59.983Z,0.80
2022-09-11T21:32:03.315Z,0.60
2022-09-11T21:35:07.077Z,0.70
2022-09-11T21:38:10.210Z,0.70
2022-09-11T21:41:13.895Z,0.52
2022-09-11T21:44:17.018Z,0.60
2022-09-11T21:47:20.180Z,0.40
2022-09-11T21:50:23.713Z,0.60
2022-09-11T21:53:26.919Z,0.50
2022-09-11T21:56:32.609Z,0.50
2022-09-11T21:59:35.750Z,0.40
2022-09-11T22:02:39.041Z,0.47
2022-09-11T22:05:43.536Z,0.50
2022-09-11T22:08:47.200Z,1.08
2022-09-11T22:11:50.508Z,0.47
2022-09-11T22:14:54.925Z,0.43
2022-09-11T22:17:57.999Z,0.60
2022-09-11T22:21:01.403Z,0.80
2022-09-11T22:24:04.756Z,0.65
2022-09-11T22:27:09.376Z,0.68
2022-09-11T22:30:13.964Z,0.70
2022-09-11T22:33:17.058Z,0.65
2022-09-11T22:36:28.261Z,0.80
2022-09-11T22:39:31.818Z,0.80
2022-09-11T22:42:35.290Z,4.22
2022-09-11T22:45:38.418Z,0.70
2022-09-11T22:48:42.315Z,0.75
2022-09-11T22:51:45.452Z,0.75
2022-09-11T22:54:48.668Z,1.10
2022-09-11T22:57:51.917Z,0.68
2022-09-11T23:00:55.754Z,0.80
2022-09-11T23:03:58.869Z,0.80
2022-09-11T23:07:17.119Z,0.80
2022-09-11T23:10:21.893Z,0.68
2022-09-11T23:13:25.072Z,0.73
2022-09-11T23:16:29.601Z,0.60
2022-09-11T23:19:34.307Z,0.80
2022-09-11T23:22:37.603Z,0.93
2022-09-11T23:25:42.189Z,1.10
2022-09-11T23:28:46.405Z,1.15
2022-09-11T23:31:49.688Z,0.90
2022-09-11T23:34:52.766Z,0.80
2022-09-11T23:37:56.005Z,1.30
2022-09-11T23:40:59.049Z,1.10
2022-09-11T23:44:03.595Z,1.20
2022-09-11T23:47:06.699Z,1.30
2022-09-11T23:50:10.129Z,1.20
2022-09-11T23:53:13.272Z,1.33
2022-09-11T23:56:16.906Z,1.40
2022-09-11T23:59:20.140Z,1.27
